createdAt,value
2023-01-13T00:01:29.167Z,76.21
2023-01-13T00:03:56.598Z,77.16
2023-01-13T00:06:29.297Z,77.38
2023-01-13T00:08:57.798Z,76.97
2023-01-13T00:11:26.177Z,77.02
2023-01-13T00:13:53.547Z,77.55
2023-01-13T00:16:21.191Z,76.59
2023-01-13T00:18:48.996Z,77.10
2023-01-13T00:21:18.241Z,77.58
2023-01-13T00:23:46.295Z,76.20
2023-01-13T00:26:16.051Z,77.21
2023-01-13T00:28:43.121Z,76.33
2023-01-13T00:31:19.022Z,77.58
2023-01-13T00:33:48.999Z,78.38
2023-01-13T00:36:18.221Z,77.14
2023-01-13T00:38:45.752Z,77.00
2023-01-13T00:41:15.000Z,77.29
2023-01-13T00:43:42.793Z,77.82
2023-01-13T00:46:11.801Z,78.81
2023-01-13T00:48:40.129Z,78.36
2023-01-13T00:51:10.888Z,79.20
2023-01-13T00:53:41.646Z,78.04
2023-01-13T00:56:34.088Z,77.67
2023-01-13T00:59:05.532Z,78.17
2023-01-13T01:01:32.544Z,78.18
2023-01-13T01:04:00.002Z,78.07
2023-01-13T01:06:27.595Z,76.38
2023-01-13T01:08:55.985Z,76.17
2023-01-13T01:11:26.936Z,77.61
2023-01-13T01:13:56.785Z,78.65
2023-01-13T01:16:25.479Z,78.42
2023-01-13T01:18:55.247Z,78.19
2023-01-13T01:21:24.464Z,78.21
2023-01-13T01:23:52.182Z,79.18
2023-01-13T01:26:22.922Z,79.13
2023-01-13T01:28:50.118Z,78.54
2023-01-13T01:31:22.446Z,76.80
2023-01-13T01:33:50.636Z,77.03
2023-01-13T01:36:20.559Z,76.64
2023-01-13T01:38:48.942Z,77.01
2023-01-13T01:41:18.953Z,77.43
2023-01-13T01:44:00.023Z,78.81
2023-01-13T01:46:34.079Z,78.46
2023-01-13T01:49:24.262Z,77.47
2023-01-13T01:51:59.551Z,78.69
2023-01-13T01:54:32.242Z,83.15
2023-01-13T01:56:59.503Z,84.98
2023-01-13T01:59:28.283Z,83.47
2023-01-13T02:01:55.763Z,84.17
2023-01-13T02:04:32.032Z,85.25
2023-01-13T02:06:59.053Z,86.02
2023-01-13T02:09:27.116Z,86.45
2023-01-13T02:12:12.685Z,85.71
2023-01-13T02:14:41.772Z,84.67
2023-01-13T02:17:21.026Z,85.26
2023-01-13T02:24:13.155Z,84.33
2023-01-13T02:27:11.860Z,85.22
2023-01-13T02:30:37.316Z,83.28
2023-01-13T02:33:25.187Z,83.41
2023-01-13T02:36:08.281Z,83.72
2023-01-13T02:38:39.784Z,81.92
2023-01-13T02:41:37.272Z,81.62
2023-01-13T02:44:08.771Z,82.02
2023-01-13T02:46:47.760Z,83.40
2023-01-13T02:49:28.485Z,83.46
2023-01-13T02:52:00.305Z,83.86
2023-01-13T02:54:29.627Z,81.57
2023-01-13T02:56:59.374Z,81.42
2023-01-13T02:59:27.930Z,80.74
2023-01-13T03:01:57.837Z,82.10
2023-01-13T03:04:43.517Z,82.51
2023-01-13T03:07:18.928Z,84.44
2023-01-13T03:09:58.938Z,84.73
2023-01-13T03:12:41.495Z,84.69
2023-01-13T03:15:20.116Z,85.58
2023-01-13T03:18:03.643Z,82.54
2023-01-13T03:20:37.429Z,82.14
2023-01-13T03:23:15.901Z,77.50
2023-01-13T03:26:12.973Z,79.94
2023-01-13T03:28:46.217Z,81.62
2023-01-13T03:31:20.087Z,80.97
2023-01-13T03:34:04.994Z,85.08
2023-01-13T03:36:34.239Z,84.95
2023-01-13T03:39:09.816Z,83.45
2023-01-13T03:41:45.878Z,83.65
2023-01-13T03:44:40.218Z,83.04
2023-01-13T03:47:26.444Z,82.31
2023-01-13T03:49:59.558Z,80.86
2023-01-13T03:52:38.682Z,81.70
2023-01-13T03:55:10.310Z,81.95
2023-01-13T03:57:42.962Z,78.45
2023-01-13T04:00:12.415Z,79.91
2023-01-13T04:02:51.532Z,78.33
2023-01-13T04:05:18.642Z,82.08
2023-01-13T04:08:31.461Z,84.66
2023-01-13T04:11:06.430Z,84.05
2023-01-13T04:13:38.009Z,84.01
2023-01-13T04:16:10.521Z,79.79
2023-01-13T04:18:39.479Z,80.28
2023-01-13T04:21:07.786Z,79.21
2023-01-13T04:23:34.343Z,81.46
2023-01-13T04:26:00.995Z,79.74
2023-01-13T04:28:27.799Z,74.99
2023-01-13T04:30:54.385Z,75.96
2023-01-13T04:33:21.239Z,75.39
2023-01-13T04:35:48.299Z,75.48
2023-01-13T04:38:17.465Z,76.79
2023-01-13T04:40:44.340Z,74.44
2023-01-13T04:43:11.151Z,75.18
2023-01-13T04:45:38.353Z,74.70
2023-01-13T04:48:05.495Z,73.85
2023-01-13T04:50:32.190Z,73.52
2023-01-13T04:53:01.062Z,73.11
2023-01-13T04:55:28.009Z,71.18
2023-01-13T04:57:54.474Z,72.03
2023-01-13T05:00:22.561Z,75.00
2023-01-13T05:02:50.447Z,73.18
2023-01-13T05:05:17.759Z,74.10
2023-01-13T05:07:45.381Z,74.77
2023-01-13T05:10:12.244Z,73.25
2023-01-13T05:12:58.131Z,75.21
2023-01-13T05:15:43.513Z,76.24
2023-01-13T05:18:10.572Z,78.20
2023-01-13T05:20:37.228Z,78.26
2023-01-13T05:23:22.475Z,79.53
2023-01-13T05:25:49.176Z,78.87
2023-01-13T05:28:16.147Z,75.38
2023-01-13T05:30:46.083Z,77.68
2023-01-13T05:33:14.991Z,78.82
2023-01-13T05:35:42.958Z,75.81
2023-01-13T05:38:10.632Z,77.00
2023-01-13T05:40:59.971Z,78.44
2023-01-13T05:43:27.281Z,75.94
2023-01-13T05:46:04.666Z,77.65
2023-01-13T05:48:39.678Z,79.32
2023-01-13T05:51:08.482Z,80.21
2023-01-13T05:53:35.504Z,80.29
2023-01-13T05:56:06.285Z,79.25
2023-01-13T05:58:33.993Z,79.40
2023-01-13T06:01:05.722Z,81.84
2023-01-13T06:03:32.993Z,79.76
2023-01-13T06:06:01.542Z,76.77
2023-01-13T06:08:28.939Z,79.02
2023-01-13T06:10:55.829Z,81.01
2023-01-13T06:13:23.091Z,81.16
2023-01-13T06:15:49.943Z,80.98
2023-01-13T06:18:16.915Z,80.84
2023-01-13T06:20:44.144Z,82.28
2023-01-13T06:23:11.709Z,81.73
2023-01-13T06:25:38.674Z,81.21
2023-01-13T06:28:05.501Z,79.29
2023-01-13T06:30:46.644Z,78.95
2023-01-13T06:33:16.514Z,79.46
2023-01-13T06:35:46.975Z,80.96
2023-01-13T06:38:17.498Z,79.71
2023-01-13T06:40:44.615Z,79.12
2023-01-13T06:43:16.527Z,79.85
2023-01-13T06:45:53.626Z,80.47
2023-01-13T06:48:28.918Z,80.89
2023-01-13T06:50:56.635Z,80.45
2023-01-13T06:53:24.711Z,80.81
2023-01-13T06:55:53.079Z,82.00
2023-01-13T06:58:21.625Z,80.40
2023-01-13T07:00:51.251Z,78.50
2023-01-13T07:03:19.659Z,80.18
2023-01-13T07:05:53.487Z,80.72
2023-01-13T07:08:22.473Z,81.05
2023-01-13T07:10:51.125Z,80.98
2023-01-13T07:13:37.727Z,80.74
2023-01-13T07:16:08.122Z,80.42
2023-01-13T07:18:36.991Z,79.94
2023-01-13T07:21:07.538Z,79.94
2023-01-13T07:23:37.916Z,80.64
2023-01-13T07:26:08.067Z,81.18
2023-01-13T07:28:36.957Z,81.81
2023-01-13T07:31:06.764Z,81.29
2023-01-13T07:33:34.721Z,82.35
2023-01-13T07:36:04.580Z,83.50
2023-01-13T07:38:33.795Z,83.34
2023-01-13T07:41:23.916Z,85.00
2023-01-13T07:43:52.030Z,85.59
2023-01-13T07:46:19.207Z,85.68
2023-01-13T07:48:48.862Z,85.59
2023-01-13T07:51:16.194Z,85.50
2023-01-13T07:53:43.655Z,86.76
2023-01-13T07:56:12.453Z,87.66
2023-01-13T07:58:40.487Z,87.76
2023-01-13T08:01:13.702Z,86.97
2023-01-13T08:03:41.377Z,87.18
2023-01-13T08:06:12.315Z,86.11
2023-01-13T08:08:39.708Z,85.70
2023-01-13T08:11:08.386Z,86.09
2023-01-13T08:13:36.565Z,83.49
2023-01-13T08:16:11.670Z,84.16
2023-01-13T08:18:40.219Z,83.08
2023-01-13T08:21:12.796Z,83.20
2023-01-13T08:23:42.219Z,81.40
2023-01-13T08:26:14.253Z,83.82
2023-01-13T08:28:42.145Z,84.07
2023-01-13T08:31:13.305Z,83.98
2023-01-13T08:33:41.795Z,84.41
2023-01-13T08:36:12.160Z,84.14
2023-01-13T08:38:40.432Z,85.16
2023-01-13T08:41:10.999Z,86.89
2023-01-13T08:43:38.868Z,82.15
2023-01-13T08:46:07.299Z,84.05
2023-01-13T08:48:35.265Z,82.78
2023-01-13T08:51:05.430Z,78.87
2023-01-13T08:53:33.019Z,78.45
2023-01-13T08:56:00.837Z,80.79
2023-01-13T08:58:28.827Z,78.18
2023-01-13T09:00:56.020Z,77.96
2023-01-13T09:03:24.208Z,76.25
2023-01-13T09:05:51.132Z,73.35
2023-01-13T09:08:19.693Z,73.95
2023-01-13T09:10:47.571Z,72.63
2023-01-13T09:13:15.368Z,69.47
2023-01-13T09:15:45.909Z,68.79
2023-01-13T09:18:14.485Z,71.75
2023-01-13T09:20:42.224Z,71.34
2023-01-13T09:23:11.159Z,70.13
2023-01-13T09:25:39.531Z,71.35
2023-01-13T09:28:08.227Z,69.39
2023-01-13T09:30:37.125Z,71.40
2023-01-13T09:33:23.019Z,71.05
2023-01-13T09:35:50.662Z,71.49
2023-01-13T09:38:18.211Z,68.81
2023-01-13T09:40:48.653Z,70.52
2023-01-13T09:43:44.602Z,70.59
2023-01-13T09:46:43.051Z,69.08
2023-01-13T09:49:37.083Z,69.09
2023-01-13T09:52:04.752Z,68.05
2023-01-13T09:54:41.080Z,70.65
2023-01-13T09:57:12.438Z,67.01
2023-01-13T09:59:40.751Z,65.13
2023-01-13T10:02:10.794Z,68.51
2023-01-13T10:04:37.889Z,71.24
2023-01-13T10:07:12.865Z,67.81
2023-01-13T10:09:52.533Z,67.82
2023-01-13T10:12:42.967Z,69.89
2023-01-13T10:15:30.735Z,66.84
2023-01-13T10:18:18.081Z,65.94
2023-01-13T10:21:07.953Z,66.54
2023-01-13T10:24:00.090Z,65.90
2023-01-13T10:26:59.910Z,65.87
2023-01-13T10:29:30.130Z,65.42
2023-01-13T10:31:59.579Z,66.40
2023-01-13T10:34:28.468Z,64.09
2023-01-13T10:37:07.879Z,65.64
2023-01-13T10:39:46.393Z,65.40
2023-01-13T10:42:17.037Z,65.21
2023-01-13T10:45:03.599Z,63.70
2023-01-13T10:47:34.953Z,62.50
2023-01-13T10:50:09.735Z,63.97
2023-01-13T10:52:56.596Z,62.59
2023-01-13T10:55:37.501Z,63.20
2023-01-13T10:58:18.477Z,62.25
2023-01-13T11:00:46.385Z,61.92
2023-01-13T11:03:19.546Z,61.63
2023-01-13T11:05:59.515Z,61.81
2023-01-13T11:08:41.474Z,60.05
2023-01-13T11:11:28.040Z,60.17
2023-01-13T11:14:21.321Z,60.12
2023-01-13T11:16:53.980Z,61.42
2023-01-13T11:19:27.598Z,62.06
2023-01-13T11:22:06.847Z,59.76
2023-01-13T11:24:40.708Z,59.99
2023-01-13T11:27:17.437Z,60.47
2023-01-13T11:29:59.288Z,61.37
2023-01-13T11:32:35.229Z,62.02
2023-01-13T11:35:15.901Z,60.60
2023-01-13T11:37:51.137Z,60.27
2023-01-13T11:40:27.629Z,63.76
2023-01-13T11:43:04.291Z,62.96
2023-01-13T11:45:43.845Z,61.01
2023-01-13T11:48:17.908Z,60.82
2023-01-13T11:51:07.996Z,60.95
2023-01-13T11:54:05.656Z,60.32
2023-01-13T11:56:57.743Z,57.48
2023-01-13T12:00:03.253Z,58.47
2023-01-13T12:02:48.879Z,57.92
2023-01-13T12:05:32.123Z,59.25
2023-01-13T12:08:18.441Z,58.57
2023-01-13T12:10:49.009Z,60.17
2023-01-13T12:13:36.412Z,62.03
2023-01-13T12:16:13.789Z,63.87
2023-01-13T12:19:11.809Z,61.92
2023-01-13T12:21:58.109Z,60.32
2023-01-13T12:24:33.122Z,58.91
2023-01-13T12:27:10.248Z,58.56
2023-01-13T12:29:39.005Z,60.20
2023-01-13T12:32:13.615Z,61.45
2023-01-13T12:35:08.983Z,60.29
2023-01-13T12:37:48.496Z,60.62
2023-01-13T12:40:57.848Z,60.13
2023-01-13T12:43:44.517Z,59.66
2023-01-13T12:46:23.398Z,59.76
2023-01-13T12:48:54.595Z,60.11
2023-01-13T12:51:33.306Z,60.02
2023-01-13T12:54:37.485Z,59.42
2023-01-13T12:57:33.471Z,60.17
2023-01-13T13:00:03.341Z,58.96
2023-01-13T13:02:32.934Z,60.28
2023-01-13T13:05:23.886Z,60.37
2023-01-13T13:08:11.236Z,60.41
2023-01-13T13:10:45.071Z,59.98
2023-01-13T13:13:48.543Z,59.55
2023-01-13T13:16:25.750Z,59.38
2023-01-13T13:19:22.842Z,60.14
2023-01-13T13:22:12.385Z,60.30
2023-01-13T13:25:04.265Z,60.63
2023-01-13T13:27:31.724Z,62.74
2023-01-13T13:30:09.557Z,61.24
2023-01-13T13:32:59.591Z,62.49
2023-01-13T13:35:51.947Z,63.19
2023-01-13T13:39:07.591Z,60.00
2023-01-13T13:41:55.471Z,63.06
2023-01-13T13:44:50.317Z,62.84
2023-01-13T13:47:19.302Z,62.97
2023-01-13T13:49:52.207Z,63.44
2023-01-13T13:52:42.499Z,63.64
2023-01-13T13:55:25.171Z,64.06
2023-01-13T13:57:55.044Z,64.00
2023-01-13T14:00:47.042Z,64.00
2023-01-13T14:03:29.244Z,63.62
2023-01-13T14:06:00.854Z,64.06
2023-01-13T14:08:35.579Z,63.33
2023-01-13T14:11:25.747Z,63.28
2023-01-13T14:14:07.145Z,63.21
2023-01-13T14:16:38.229Z,62.56
2023-01-13T14:19:06.892Z,62.35
2023-01-13T14:21:35.638Z,63.18
2023-01-13T14:24:16.089Z,63.44
2023-01-13T14:26:51.258Z,62.96
2023-01-13T14:29:23.721Z,63.12
2023-01-13T14:31:54.529Z,63.13
2023-01-13T14:34:31.456Z,63.28
2023-01-13T14:37:02.975Z,63.48
2023-01-13T14:39:49.191Z,63.68
2023-01-13T14:42:17.959Z,62.98
2023-01-13T14:44:49.740Z,62.88
2023-01-13T14:47:20.099Z,65.27
2023-01-13T14:50:27.988Z,64.51
2023-01-13T14:52:57.337Z,65.41
2023-01-13T14:55:32.143Z,66.05
2023-01-13T14:58:21.816Z,67.86
2023-01-13T15:00:51.509Z,67.58
2023-01-13T15:03:21.275Z,69.25
2023-01-13T15:05:51.736Z,70.13
2023-01-13T15:08:24.633Z,72.16
2023-01-13T15:11:00.755Z,74.05
2023-01-13T15:13:37.990Z,75.84
2023-01-13T15:16:19.071Z,75.80
2023-01-13T15:18:47.939Z,72.98
2023-01-13T15:21:16.186Z,73.28
2023-01-13T15:23:44.528Z,72.35
2023-01-13T15:26:22.724Z,73.97
2023-01-13T15:28:53.194Z,73.84
2023-01-13T15:31:21.465Z,72.74
2023-01-13T15:33:50.017Z,73.37
2023-01-13T15:36:26.373Z,73.43
2023-01-13T15:38:54.039Z,73.88
2023-01-13T15:41:42.215Z,73.56
2023-01-13T15:44:30.771Z,72.14
2023-01-13T15:47:01.310Z,76.17
2023-01-13T15:49:36.483Z,75.80
2023-01-13T15:52:30.187Z,71.95
2023-01-13T15:54:57.465Z,73.85
2023-01-13T15:57:29.347Z,74.80
2023-01-13T16:00:00.083Z,74.32
2023-01-13T16:02:29.608Z,75.34
2023-01-13T16:04:58.518Z,75.87
2023-01-13T16:07:25.759Z,73.93
2023-01-13T16:09:53.852Z,72.04
2023-01-13T16:12:21.590Z,71.76
2023-01-13T16:14:49.253Z,71.12
2023-01-13T16:17:19.723Z,71.14
2023-01-13T16:19:47.019Z,72.87
2023-01-13T16:22:15.827Z,73.14
2023-01-13T16:24:44.515Z,72.29
2023-01-13T16:27:17.477Z,68.57
2023-01-13T16:29:48.492Z,69.97
2023-01-13T16:32:17.514Z,69.09
2023-01-13T16:34:45.008Z,70.72
2023-01-13T16:37:20.483Z,69.42
2023-01-13T16:39:48.623Z,70.07
2023-01-13T16:42:16.387Z,70.09
2023-01-13T16:44:45.206Z,70.57
2023-01-13T16:47:17.938Z,70.05
2023-01-13T16:49:45.809Z,70.14
2023-01-13T16:52:13.468Z,71.05
2023-01-13T16:54:41.383Z,71.47
2023-01-13T16:57:13.228Z,70.83
2023-01-13T16:59:40.993Z,72.63
2023-01-13T17:02:16.250Z,71.34
2023-01-13T17:04:45.312Z,71.54
2023-01-13T17:07:16.768Z,72.26
2023-01-13T17:09:44.635Z,71.38
2023-01-13T17:12:12.593Z,70.83
2023-01-13T17:14:43.214Z,70.67
2023-01-13T17:17:26.519Z,71.15
2023-01-13T17:19:55.551Z,69.22
2023-01-13T17:22:22.885Z,70.09
2023-01-13T17:24:50.735Z,71.23
2023-01-13T17:27:21.031Z,71.92
2023-01-13T17:29:49.986Z,70.99
2023-01-13T17:32:19.492Z,71.35
2023-01-13T17:34:47.337Z,71.01
2023-01-13T17:37:15.648Z,71.18
2023-01-13T17:39:48.163Z,70.87
2023-01-13T17:42:16.210Z,71.11
2023-01-13T17:44:44.427Z,70.58
2023-01-13T17:47:12.327Z,71.22
2023-01-13T17:49:40.227Z,73.57
2023-01-13T17:52:07.522Z,71.76
2023-01-13T17:54:36.510Z,71.94
2023-01-13T17:57:03.699Z,72.65
2023-01-13T17:59:32.316Z,70.71
2023-01-13T18:02:00.332Z,70.44
2023-01-13T18:04:28.599Z,71.23
2023-01-13T18:06:56.934Z,72.80
2023-01-13T18:09:24.565Z,71.88
2023-01-13T18:11:52.254Z,71.67
2023-01-13T18:14:22.562Z,71.98
2023-01-13T18:16:50.484Z,73.58
2023-01-13T18:19:37.369Z,72.56
2023-01-13T18:22:24.221Z,72.06
2023-01-13T18:25:11.231Z,71.42
2023-01-13T18:27:41.557Z,72.42
2023-01-13T18:30:11.874Z,73.02
2023-01-13T18:32:43.806Z,70.95
2023-01-13T18:35:12.231Z,72.07
2023-01-13T18:37:42.266Z,71.74
2023-01-13T18:40:11.731Z,70.28
2023-01-13T18:42:54.384Z,70.18
2023-01-13T18:45:25.691Z,71.57
2023-01-13T18:47:55.600Z,72.42
2023-01-13T18:50:23.743Z,73.51
2023-01-13T18:52:51.951Z,75.94
2023-01-13T18:55:21.662Z,77.88
2023-01-13T18:57:50.411Z,77.68
2023-01-13T19:00:19.927Z,79.12
2023-01-13T19:05:35.592Z,76.60
2023-01-13T19:08:05.339Z,76.47
2023-01-13T19:10:36.107Z,77.82
2023-01-13T19:13:02.973Z,78.73
2023-01-13T19:15:30.387Z,79.15
2023-01-13T19:17:57.664Z,79.04
2023-01-13T19:20:25.396Z,80.24
2023-01-13T19:22:54.380Z,79.05
2023-01-13T19:25:21.744Z,79.57
2023-01-13T19:27:48.450Z,80.72
2023-01-13T19:30:17.327Z,80.30
2023-01-13T19:32:45.028Z,80.70
2023-01-13T19:35:14.026Z,79.35
2023-01-13T19:37:43.010Z,81.41
2023-01-13T19:40:10.884Z,82.41
2023-01-13T19:42:56.720Z,82.55
2023-01-13T19:45:26.554Z,82.27
2023-01-13T19:47:54.469Z,82.82
2023-01-13T19:50:21.428Z,82.36
2023-01-13T19:52:48.465Z,81.22
2023-01-13T19:55:15.518Z,81.04
2023-01-13T19:57:43.345Z,80.18
2023-01-13T20:00:12.248Z,77.46
2023-01-13T20:02:44.836Z,78.69
2023-01-13T20:05:17.705Z,79.12
2023-01-13T20:07:45.319Z,75.09
2023-01-13T20:10:13.311Z,75.97
2023-01-13T20:12:42.544Z,75.97
2023-01-13T20:15:09.882Z,75.56
2023-01-13T20:17:37.017Z,77.77
2023-01-13T20:20:04.768Z,76.20
2023-01-13T20:22:31.602Z,75.64
2023-01-13T20:24:58.451Z,74.56
2023-01-13T20:27:25.291Z,75.93
2023-01-13T20:29:52.150Z,75.42
2023-01-13T20:32:18.962Z,74.11
2023-01-13T20:34:45.820Z,75.80
2023-01-13T20:37:12.683Z,74.06
2023-01-13T20:39:42.598Z,77.21
2023-01-13T20:42:28.518Z,77.57
2023-01-13T20:44:59.007Z,76.47
2023-01-13T20:47:26.697Z,76.90
2023-01-13T20:49:53.523Z,78.90
2023-01-13T20:52:20.513Z,75.88
2023-01-13T20:54:47.406Z,77.28
2023-01-13T20:57:14.994Z,75.15
2023-01-13T20:59:42.040Z,75.00
2023-01-13T21:02:13.335Z,74.64
2023-01-13T21:04:40.702Z,73.38
2023-01-13T21:07:09.112Z,75.15
2023-01-13T21:09:36.472Z,74.09
2023-01-13T21:12:33.243Z,75.23
2023-01-13T21:15:19.611Z,75.35
2023-01-13T21:18:06.850Z,75.22
2023-01-13T21:20:36.020Z,74.07
2023-01-13T21:23:03.636Z,73.65
2023-01-13T21:25:31.125Z,74.62
2023-01-13T21:28:06.651Z,72.19
2023-01-13T21:30:35.122Z,73.25
2023-01-13T21:33:03.791Z,74.03
2023-01-13T21:35:30.841Z,73.16
2023-01-13T21:37:57.556Z,71.33
2023-01-13T21:40:23.978Z,72.04
2023-01-13T21:43:10.900Z,73.47
2023-01-13T21:45:57.161Z,71.86
2023-01-13T21:48:24.637Z,75.83
2023-01-13T21:50:52.620Z,75.90
2023-01-13T21:53:19.273Z,75.95
2023-01-13T21:55:50.611Z,75.35
2023-01-13T21:58:17.725Z,75.85
2023-01-13T22:00:44.696Z,72.98
2023-01-13T22:03:12.872Z,73.66
2023-01-13T22:05:40.076Z,73.19
2023-01-13T22:08:07.503Z,74.38
2023-01-13T22:10:34.335Z,73.08
2023-01-13T22:13:20.165Z,72.02
2023-01-13T22:15:48.467Z,73.42
2023-01-13T22:18:15.233Z,72.71
2023-01-13T22:20:42.001Z,73.32
2023-01-13T22:23:08.746Z,73.32
2023-01-13T22:25:35.711Z,75.75
2023-01-13T22:28:05.890Z,77.30
2023-01-13T22:30:33.144Z,76.13
2023-01-13T22:33:00.555Z,74.34
2023-01-13T22:35:27.524Z,76.85
2023-01-13T22:37:54.085Z,73.86
2023-01-13T22:40:21.212Z,73.85
2023-01-13T22:42:48.415Z,75.31
2023-01-13T22:45:14.968Z,76.22
2023-01-13T22:47:41.636Z,74.33
2023-01-13T22:50:09.274Z,76.84
2023-01-13T22:52:36.265Z,77.50
2023-01-13T22:55:03.620Z,76.70
2023-01-13T22:57:36.332Z,75.92
2023-01-13T23:00:10.612Z,76.45
2023-01-13T23:02:38.591Z,75.46
2023-01-13T23:05:05.770Z,75.18
2023-01-13T23:07:32.532Z,74.70
2023-01-13T23:10:00.678Z,76.27
2023-01-13T23:12:27.619Z,76.19
2023-01-13T23:14:55.092Z,78.52
2023-01-13T23:17:22.028Z,79.28
2023-01-13T23:19:49.131Z,79.80
2023-01-13T23:22:15.611Z,79.96
2023-01-13T23:24:42.219Z,79.84
2023-01-13T23:27:09.208Z,80.23
2023-01-13T23:29:36.298Z,80.31
2023-01-13T23:32:03.455Z,80.99
2023-01-13T23:34:30.611Z,82.48
2023-01-13T23:36:57.188Z,79.69
2023-01-13T23:39:24.583Z,79.07
2023-01-13T23:41:51.924Z,79.29
2023-01-13T23:44:18.514Z,79.00
2023-01-13T23:46:45.493Z,80.52
2023-01-13T23:49:12.380Z,79.78
2023-01-13T23:51:39.097Z,80.23
2023-01-13T23:54:06.459Z,79.79
2023-01-13T23:56:34.678Z,79.64
2023-01-13T23:59:01.303Z,80.51
